createdAt,value
2023-04-15T00:00:26.061Z,1.90
2023-04-15T00:03:28.693Z,1.67
2023-04-15T00:06:31.054Z,2.00
2023-04-15T00:09:32.440Z,2.13
2023-04-15T00:12:33.835Z,1.70
2023-04-15T00:15:35.242Z,1.93
2023-04-15T00:18:38.341Z,1.80
2023-04-15T00:21:39.833Z,1.85
2023-04-15T00:24:42.934Z,1.60
2023-04-15T00:27:44.398Z,1.90
2023-04-15T00:30:46.102Z,2.40
2023-04-15T00:33:48.691Z,2.28
2023-04-15T00:36:52.520Z,2.20
2023-04-15T00:39:54.378Z,2.10
2023-04-15T00:42:55.846Z,2.17
2023-04-15T00:45:59.537Z,2.20
2023-04-15T00:49:02.822Z,2.10
2023-04-15T00:52:04.628Z,2.30
2023-04-15T00:55:06.999Z,1.90
2023-04-15T00:58:08.606Z,2.00
2023-04-15T01:01:11.337Z,2.40
2023-04-15T01:04:13.128Z,2.10
2023-04-15T01:07:14.876Z,2.10
2023-04-15T01:10:16.345Z,1.85
2023-04-15T01:13:19.159Z,2.10
2023-04-15T01:16:21.225Z,2.10
2023-04-15T01:19:22.683Z,2.00
2023-04-15T01:22:27.802Z,2.17
2023-04-15T01:25:33.626Z,2.05
2023-04-15T01:28:36.239Z,2.00
2023-04-15T01:31:39.352Z,2.00
2023-04-15T01:34:40.773Z,2.20
2023-04-15T01:37:42.663Z,2.00
2023-04-15T01:40:44.874Z,2.20
2023-04-15T01:43:46.307Z,2.40
2023-04-15T01:46:48.296Z,2.30
2023-04-15T01:49:49.738Z,2.25
2023-04-15T01:52:51.177Z,2.38
2023-04-15T01:55:53.176Z,2.70
2023-04-15T01:58:54.657Z,2.83
2023-04-15T02:01:56.341Z,2.83
2023-04-15T02:04:57.973Z,2.57
2023-04-15T02:07:59.391Z,2.63
2023-04-15T02:11:01.230Z,2.50
2023-04-15T02:14:06.808Z,2.38
2023-04-15T02:17:08.351Z,2.70
2023-04-15T02:20:10.664Z,2.53
2023-04-15T02:23:12.177Z,2.35
2023-04-15T02:26:14.008Z,2.33
2023-04-15T02:29:15.514Z,2.30
2023-04-15T02:32:17.188Z,2.27
2023-04-15T02:35:21.741Z,1.83
2023-04-15T02:38:23.209Z,1.80
2023-04-15T02:41:27.651Z,2.10
2023-04-15T02:44:29.365Z,1.98
2023-04-15T02:47:35.897Z,1.95
2023-04-15T02:50:40.659Z,2.10
2023-04-15T02:53:43.670Z,1.98
2023-04-15T02:56:45.426Z,1.80
2023-04-15T02:59:46.908Z,1.83
2023-04-15T03:02:52.217Z,1.83
2023-04-15T03:05:54.269Z,1.88
2023-04-15T03:08:56.885Z,1.80
2023-04-15T03:11:58.577Z,2.10
2023-04-15T03:15:01.995Z,1.90
2023-04-15T03:18:09.808Z,2.00
2023-04-15T03:21:11.267Z,1.97
2023-04-15T03:24:14.115Z,1.83
2023-04-15T03:27:15.554Z,2.00
2023-04-15T03:30:18.004Z,1.90
2023-04-15T03:33:20.406Z,1.60
2023-04-15T03:36:21.826Z,2.00
2023-04-15T03:39:23.278Z,1.80
2023-04-15T03:42:24.697Z,3.70
2023-04-15T03:45:26.095Z,4.97
2023-04-15T03:48:27.504Z,2.88
2023-04-15T03:51:28.927Z,2.60
2023-04-15T03:54:30.415Z,2.60
2023-04-15T03:57:31.847Z,2.87
2023-04-15T04:00:33.271Z,2.67
2023-04-15T04:03:34.791Z,2.80
2023-04-15T04:06:36.472Z,2.60
2023-04-15T04:09:40.526Z,2.70
2023-04-15T04:12:42.024Z,2.80
2023-04-15T04:15:43.481Z,2.37
2023-04-15T04:18:45.053Z,3.13
2023-04-15T04:21:46.526Z,2.40
2023-04-15T04:24:47.942Z,2.17
2023-04-15T04:27:49.373Z,2.60
2023-04-15T04:30:50.997Z,2.03
2023-04-15T04:33:52.445Z,2.40
2023-04-15T04:36:53.879Z,2.10
2023-04-15T04:39:55.423Z,2.03
2023-04-15T04:42:56.957Z,1.97
2023-04-15T04:45:58.375Z,2.07
2023-04-15T04:48:59.807Z,1.70
2023-04-15T04:52:01.562Z,1.73
2023-04-15T04:55:03.456Z,1.90
2023-04-15T04:58:04.879Z,1.98
2023-04-15T05:01:06.337Z,1.80
2023-04-15T05:04:07.944Z,1.90
2023-04-15T05:07:09.525Z,1.90
2023-04-15T05:10:11.412Z,1.97
2023-04-15T05:13:12.978Z,1.55
2023-04-15T05:16:14.445Z,1.80
2023-04-15T05:19:15.924Z,1.30
2023-04-15T05:22:17.406Z,1.40
2023-04-15T05:25:18.879Z,2.30
2023-04-15T05:28:20.400Z,2.17
2023-04-15T05:31:21.829Z,1.73
2023-04-15T05:34:23.277Z,2.10
2023-04-15T05:37:24.806Z,1.87
2023-04-15T05:40:26.608Z,2.00
2023-04-15T05:43:28.033Z,1.90
2023-04-15T05:46:29.472Z,2.20
2023-04-15T05:49:31.015Z,2.10
2023-04-15T05:52:32.536Z,2.40
2023-04-15T05:55:34.082Z,2.30
2023-04-15T05:58:35.731Z,2.30
2023-04-15T06:01:37.263Z,2.10
2023-04-15T06:04:39.461Z,2.10
2023-04-15T06:07:41.148Z,2.08
2023-04-15T06:10:42.664Z,2.08
2023-04-15T06:13:44.104Z,2.00
2023-04-15T06:16:45.585Z,2.10
2023-04-15T06:19:46.991Z,2.13
2023-04-15T06:22:48.406Z,2.40
2023-04-15T06:25:49.833Z,2.10
2023-04-15T06:28:51.293Z,3.07
2023-04-15T06:31:52.812Z,4.50
2023-04-15T06:34:54.440Z,4.10
2023-04-15T06:37:56.710Z,3.70
2023-04-15T06:40:58.181Z,3.35
2023-04-15T06:43:59.813Z,3.20
2023-04-15T06:47:01.272Z,3.10
2023-04-15T06:50:04.029Z,2.40
2023-04-15T06:53:05.752Z,2.80
2023-04-15T06:56:09.368Z,2.40
2023-04-15T06:59:10.898Z,2.33
2023-04-15T07:02:14.349Z,3.00
2023-04-15T07:05:16.270Z,3.20
2023-04-15T07:08:17.695Z,3.50
2023-04-15T07:11:19.897Z,3.13
2023-04-15T07:14:21.426Z,2.60
2023-04-15T07:17:22.875Z,2.80
2023-04-15T07:20:24.314Z,3.10
2023-04-15T07:23:25.745Z,3.10
2023-04-15T07:26:27.168Z,2.67
2023-04-15T07:29:28.605Z,2.87
2023-04-15T07:32:30.069Z,2.70
2023-04-15T07:35:31.659Z,3.07
2023-04-15T07:38:33.135Z,3.57
2023-04-15T07:41:34.703Z,3.47
2023-04-15T07:44:36.244Z,2.80
2023-04-15T07:47:37.690Z,2.67
2023-04-15T07:50:39.342Z,2.83
2023-04-15T07:53:40.858Z,3.58
2023-04-15T07:56:42.314Z,2.83
2023-04-15T07:59:43.792Z,2.90
2023-04-15T08:02:46.896Z,2.70
2023-04-15T08:05:48.558Z,2.90
2023-04-15T08:08:50.173Z,2.90
2023-04-15T08:11:51.588Z,2.90
2023-04-15T08:14:53.080Z,3.00
2023-04-15T08:17:54.874Z,3.10
2023-04-15T08:20:56.280Z,3.00
2023-04-15T08:23:57.758Z,2.80
2023-04-15T08:26:59.871Z,2.90
2023-04-15T08:30:04.239Z,3.58
2023-04-15T08:33:06.416Z,3.58
2023-04-15T08:36:08.454Z,3.00
2023-04-15T08:39:10.001Z,3.22
2023-04-15T08:42:16.558Z,3.00
2023-04-15T08:45:18.597Z,2.53
2023-04-15T08:48:20.549Z,2.65
2023-04-15T08:51:26.543Z,2.50
2023-04-15T08:54:28.476Z,2.70
2023-04-15T08:57:30.062Z,3.10
2023-04-15T09:00:33.413Z,2.33
2023-04-15T09:03:35.238Z,2.25
2023-04-15T09:06:37.100Z,2.47
2023-04-15T09:09:40.205Z,2.30
2023-04-15T09:12:41.607Z,3.17
2023-04-15T09:15:43.019Z,2.00
2023-04-15T09:18:44.507Z,2.10
2023-04-15T09:21:48.228Z,2.50
2023-04-15T09:24:49.628Z,1.98
2023-04-15T09:27:56.826Z,2.30
2023-04-15T09:31:01.066Z,2.45
2023-04-15T09:34:02.903Z,2.50
2023-04-15T09:37:04.602Z,2.10
2023-04-15T09:40:06.716Z,2.30
2023-04-15T09:43:09.845Z,2.22
2023-04-15T09:46:11.645Z,2.10
2023-04-15T09:49:13.437Z,2.15
2023-04-15T09:52:14.972Z,2.90
2023-04-15T09:55:18.366Z,2.00
2023-04-15T09:58:33.734Z,3.00
2023-04-15T10:01:38.959Z,2.28
2023-04-15T10:04:42.091Z,2.03
2023-04-15T10:07:44.133Z,2.30
2023-04-15T10:10:47.274Z,2.25
2023-04-15T10:13:50.526Z,2.47
2023-04-15T10:16:56.455Z,2.03
2023-04-15T10:19:57.912Z,2.03
2023-04-15T10:22:59.538Z,1.92
2023-04-15T10:26:02.581Z,1.55
2023-04-15T10:29:05.046Z,1.58
2023-04-15T10:32:07.141Z,1.40
2023-04-15T10:38:32.879Z,1.30
2023-04-15T10:41:35.733Z,1.42
2023-04-15T10:44:41.535Z,1.40
2023-04-15T10:47:43.928Z,1.40
2023-04-15T10:50:56.453Z,1.40
2023-04-15T10:54:01.033Z,1.77
2023-04-15T10:57:08.687Z,1.70
2023-04-15T11:00:12.994Z,1.73
2023-04-15T11:03:14.839Z,1.88
2023-04-15T11:06:16.452Z,2.05
2023-04-15T11:09:33.766Z,2.30
2023-04-15T11:12:36.415Z,2.50
2023-04-15T11:15:43.002Z,2.53
2023-04-15T11:18:54.861Z,2.40
2023-04-15T11:21:56.806Z,2.60
2023-04-15T11:24:58.436Z,2.63
2023-04-15T11:28:01.905Z,2.25
2023-04-15T11:31:15.283Z,2.13
2023-04-15T11:34:24.009Z,2.47
2023-04-15T11:37:30.336Z,2.10
2023-04-15T11:40:33.433Z,1.95
2023-04-15T11:43:35.497Z,1.52
2023-04-15T11:46:37.318Z,2.00
2023-04-15T11:49:41.430Z,1.30
2023-04-15T11:53:01.316Z,1.52
2023-04-15T11:56:02.986Z,1.50
2023-04-15T11:59:04.540Z,1.42
2023-04-15T12:02:12.979Z,1.25
2023-04-15T12:05:14.684Z,1.30
2023-04-15T12:08:16.189Z,1.40
2023-04-15T12:11:18.342Z,1.65
2023-04-15T12:17:28.142Z,1.50
2023-04-15T12:20:31.284Z,1.27
2023-04-15T12:23:37.795Z,1.38
2023-04-15T12:26:53.624Z,1.40
2023-04-15T12:30:05.138Z,1.20
2023-04-15T12:33:06.770Z,1.20
2023-04-15T12:36:08.551Z,1.20
2023-04-15T12:39:10.360Z,1.23
2023-04-15T12:42:12.309Z,1.50
2023-04-15T12:45:13.986Z,1.65
2023-04-15T12:48:15.430Z,1.42
2023-04-15T12:51:16.838Z,2.50
2023-04-15T12:54:18.978Z,1.90
2023-04-15T13:00:21.989Z,1.40
2023-04-15T13:03:23.689Z,1.35
2023-04-15T13:09:27.111Z,1.13
2023-04-15T13:12:28.629Z,1.42
2023-04-15T13:15:30.141Z,1.60
2023-04-15T13:18:31.748Z,1.70
2023-04-15T13:21:35.703Z,1.65
2023-04-15T13:24:39.232Z,1.60
2023-04-15T13:27:40.735Z,1.40
2023-04-15T13:30:42.897Z,1.42
2023-04-15T13:36:48.524Z,1.92
2023-04-15T13:39:49.977Z,1.58
2023-04-15T13:42:52.054Z,1.70
2023-04-15T13:48:54.848Z,1.40
2023-04-15T13:51:56.294Z,1.60
2023-04-15T13:55:08.458Z,1.73
2023-04-15T13:58:19.112Z,2.20
2023-04-15T14:01:21.111Z,1.75
2023-04-15T14:04:22.714Z,1.77
2023-04-15T14:07:24.448Z,1.80
2023-04-15T14:10:25.859Z,2.30
2023-04-15T14:13:27.327Z,1.83
2023-04-15T14:16:28.841Z,2.10
2023-04-15T14:19:31.404Z,1.90
2023-04-15T14:22:32.812Z,1.80
2023-04-15T14:25:34.387Z,2.08
2023-04-15T14:28:38.207Z,1.98
2023-04-15T14:31:39.772Z,2.17
2023-04-15T14:34:42.978Z,2.00
2023-04-15T14:37:44.368Z,1.80
2023-04-15T14:40:45.876Z,2.15
2023-04-15T14:43:47.363Z,2.20
2023-04-15T14:46:48.816Z,2.17
2023-04-15T14:49:50.681Z,2.03
2023-04-15T14:52:52.109Z,2.20
2023-04-15T14:55:53.544Z,2.13
2023-04-15T14:58:54.966Z,2.50
2023-04-15T15:01:56.835Z,2.30
2023-04-15T15:04:59.272Z,2.35
2023-04-15T15:08:00.814Z,2.15
2023-04-15T15:11:02.265Z,2.67
2023-04-15T15:14:03.864Z,2.20
2023-04-15T15:17:05.273Z,2.30
2023-04-15T15:20:07.162Z,2.50
2023-04-15T15:23:08.606Z,2.20
2023-04-15T15:26:10.201Z,2.03
2023-04-15T15:29:11.628Z,2.17
2023-04-15T15:32:13.038Z,2.20
2023-04-15T15:35:14.563Z,2.70
2023-04-15T15:38:16.136Z,2.50
2023-04-15T15:41:17.638Z,2.35
2023-04-15T15:44:19.065Z,2.92
2023-04-15T15:47:22.116Z,2.95
2023-04-15T15:50:23.777Z,2.63
2023-04-15T15:53:25.908Z,2.50
2023-04-15T15:59:28.726Z,2.58
2023-04-15T16:02:59.802Z,2.70
2023-04-15T16:05:53.240Z,3.00
2023-04-15T16:08:54.894Z,2.30
2023-04-15T16:11:57.520Z,2.38
2023-04-15T16:14:59.015Z,2.70
2023-04-15T16:18:00.568Z,2.50
2023-04-15T16:21:02.045Z,2.47
2023-04-15T16:24:03.532Z,2.00
2023-04-15T16:27:04.943Z,1.65
2023-04-15T16:30:07.104Z,1.70
2023-04-15T16:33:09.443Z,1.50
2023-04-15T16:36:10.953Z,1.60
2023-04-15T16:39:12.639Z,2.40
2023-04-15T16:42:14.062Z,2.28
2023-04-15T16:45:15.793Z,2.50
2023-04-15T16:48:18.423Z,2.70
2023-04-15T16:51:19.861Z,3.47
2023-04-15T16:54:21.346Z,4.15
2023-04-15T16:57:22.768Z,4.90
2023-04-15T17:00:26.359Z,3.97
2023-04-15T17:03:27.848Z,4.57
2023-04-15T17:06:29.511Z,5.35
2023-04-15T17:09:31.128Z,3.40
2023-04-15T17:12:32.549Z,3.42
2023-04-15T17:15:34.032Z,3.65
2023-04-15T17:18:35.596Z,3.45
2023-04-15T17:21:37.018Z,3.78
2023-04-15T17:24:38.510Z,4.10
2023-04-15T17:27:40.157Z,4.88
2023-04-15T17:30:41.813Z,4.72
2023-04-15T17:34:00.444Z,4.05
2023-04-15T17:37:06.796Z,3.10
2023-04-15T17:40:08.880Z,3.83
2023-04-15T17:46:13.182Z,2.92
2023-04-15T17:49:15.071Z,3.08
2023-04-15T17:52:16.702Z,2.30
2023-04-15T17:55:18.149Z,2.30
2023-04-15T17:58:20.089Z,2.22
2023-04-15T18:01:22.315Z,1.80
2023-04-15T18:04:26.463Z,1.70
2023-04-15T18:07:28.344Z,1.77
2023-04-15T18:10:29.753Z,2.30
2023-04-15T18:13:31.190Z,2.13
2023-04-15T18:16:32.645Z,1.80
2023-04-15T18:19:34.190Z,2.58
2023-04-15T18:22:35.713Z,1.83
2023-04-15T18:25:38.420Z,1.38
2023-04-15T18:28:39.969Z,1.20
2023-04-15T18:31:41.507Z,1.20
2023-04-15T18:34:43.014Z,1.77
2023-04-15T18:37:44.477Z,1.70
2023-04-15T18:40:45.959Z,1.30
2023-04-15T18:43:47.389Z,1.50
2023-04-15T18:46:49.788Z,1.10
2023-04-15T18:49:51.718Z,1.40
2023-04-15T18:52:53.150Z,1.60
2023-04-15T18:55:56.180Z,1.60
2023-04-15T18:59:25.883Z,1.67
2023-04-15T19:02:19.464Z,1.73
2023-04-15T19:05:20.966Z,1.50
2023-04-15T19:08:22.573Z,1.50
2023-04-15T19:11:24.016Z,1.30
2023-04-15T19:14:25.680Z,1.50
2023-04-15T19:17:27.118Z,1.30
2023-04-15T19:20:28.631Z,1.40
2023-04-15T19:23:30.927Z,1.23
2023-04-15T19:29:33.724Z,1.05
2023-04-15T19:32:35.731Z,1.40
2023-04-15T19:35:38.172Z,1.27
2023-04-15T19:38:39.596Z,1.33
2023-04-15T19:41:41.032Z,1.30
2023-04-15T19:44:42.822Z,1.50
2023-04-15T19:47:44.504Z,1.40
2023-04-15T19:50:46.306Z,1.60
2023-04-15T19:53:49.523Z,1.40
2023-04-15T19:56:50.994Z,1.30
2023-04-15T19:59:52.461Z,1.50
2023-04-15T20:02:55.846Z,1.80
2023-04-15T20:05:57.427Z,1.85
2023-04-15T20:08:58.874Z,1.90
2023-04-15T20:12:46.625Z,2.53
2023-04-15T20:15:23.432Z,1.90
2023-04-15T20:18:24.999Z,2.00
2023-04-15T20:21:27.030Z,1.83
2023-04-15T20:24:28.444Z,2.05
2023-04-15T20:27:29.943Z,1.90
2023-04-15T20:30:31.383Z,1.80
2023-04-15T20:33:32.850Z,2.27
2023-04-15T20:36:34.332Z,2.10
2023-04-15T20:39:35.954Z,2.33
2023-04-15T20:42:37.941Z,2.47
2023-04-15T20:45:39.585Z,2.80
2023-04-15T20:48:41.014Z,2.88
2023-04-15T20:51:42.416Z,2.77
2023-04-15T20:54:44.185Z,2.50
2023-04-15T20:57:45.865Z,2.35
2023-04-15T21:00:47.370Z,2.63
2023-04-15T21:03:48.918Z,2.80
2023-04-15T21:06:51.948Z,2.58
2023-04-15T21:09:55.212Z,2.55
2023-04-15T21:12:56.644Z,2.60
2023-04-15T21:15:58.123Z,3.00
2023-04-15T21:18:59.617Z,2.43
2023-04-15T21:22:01.426Z,3.20
2023-04-15T21:25:03.257Z,2.80
2023-04-15T21:28:04.883Z,2.78
2023-04-15T21:31:06.519Z,3.00
2023-04-15T21:34:08.503Z,2.90
2023-04-15T21:37:10.022Z,2.97
2023-04-15T21:40:11.850Z,3.25
2023-04-15T21:43:13.241Z,5.28
2023-04-15T21:46:22.539Z,4.63
2023-04-15T21:49:26.477Z,4.03
2023-04-15T21:52:27.934Z,4.00
2023-04-15T21:55:29.327Z,4.17
2023-04-15T21:58:30.760Z,4.00
2023-04-15T22:01:32.204Z,3.60
2023-04-15T22:04:33.855Z,3.83
2023-04-15T22:07:36.261Z,4.15
2023-04-15T22:10:38.827Z,3.80
2023-04-15T22:13:40.878Z,4.05
2023-04-15T22:16:42.472Z,4.30
2023-04-15T22:19:45.184Z,4.80
2023-04-15T22:22:46.613Z,4.80
2023-04-15T22:25:48.184Z,4.67
2023-04-15T22:28:49.716Z,5.35
2023-04-15T22:31:51.500Z,5.00
2023-04-15T22:34:52.973Z,5.40
2023-04-15T22:37:54.493Z,5.80
2023-04-15T22:40:55.964Z,6.10
2023-04-15T22:43:57.396Z,6.67
2023-04-15T22:46:58.829Z,6.80
2023-04-15T22:50:00.265Z,6.60
2023-04-15T22:53:01.700Z,6.83
2023-04-15T22:56:03.134Z,7.63
2023-04-15T22:59:04.650Z,8.50
2023-04-15T23:02:07.082Z,7.77
2023-04-15T23:05:11.988Z,7.95
2023-04-15T23:08:14.633Z,8.70
2023-04-15T23:11:16.220Z,8.10
2023-04-15T23:14:17.666Z,10.38
2023-04-15T23:17:19.150Z,10.27
2023-04-15T23:20:20.618Z,11.53
2023-04-15T23:23:22.111Z,11.37
2023-04-15T23:26:23.568Z,10.87
2023-04-15T23:29:25.011Z,12.20
2023-04-15T23:32:27.447Z,11.90
2023-04-15T23:35:28.914Z,12.27
2023-04-15T23:38:30.362Z,13.07
2023-04-15T23:41:31.804Z,12.70
2023-04-15T23:44:33.270Z,12.73
2023-04-15T23:47:34.719Z,12.47
2023-04-15T23:50:36.152Z,12.73
2023-04-15T23:53:37.573Z,12.88
2023-04-15T23:56:38.948Z,12.83
2023-04-15T23:59:40.419Z,13.40
